createdAt,value
2023-03-31T00:00:57.910Z,99908.38
2023-03-31T00:03:25.356Z,99915.44
2023-03-31T00:05:58.523Z,99907.81
2023-03-31T00:08:29.945Z,99897.75
2023-03-31T00:11:00.726Z,99902.31
2023-03-31T00:13:28.101Z,99879.59
2023-03-31T00:16:04.706Z,99884.84
2023-03-31T00:18:32.405Z,99889.25
2023-03-31T00:21:24.397Z,99870.66
2023-03-31T00:23:56.023Z,99884.84
2023-03-31T00:26:23.242Z,99887.97
2023-03-31T00:28:50.955Z,99871.22
2023-03-31T00:31:18.450Z,99870.41
2023-03-31T00:33:45.504Z,99853.94
2023-03-31T00:36:12.510Z,99868.97
2023-03-31T00:38:39.482Z,99847.13
2023-03-31T00:41:06.642Z,99867.84
2023-03-31T00:43:38.510Z,99865.84
2023-03-31T00:46:31.084Z,99856.34
2023-03-31T00:48:58.677Z,99837.06
2023-03-31T00:51:29.998Z,99854.94
2023-03-31T00:54:04.984Z,99825.97
2023-03-31T00:56:40.471Z,99834.91
2023-03-31T00:59:11.817Z,99825.00
2023-03-31T01:01:43.036Z,99836.91
2023-03-31T01:04:13.293Z,99800.22
2023-03-31T01:07:02.356Z,99822.03
2023-03-31T01:09:34.908Z,99825.84
2023-03-31T01:12:09.081Z,99801.34
2023-03-31T01:14:36.437Z,99814.38
2023-03-31T01:17:05.139Z,99790.28
2023-03-31T01:20:33.282Z,99816.50
2023-03-31T01:23:35.582Z,99808.84
2023-03-31T01:26:38.890Z,99795.66
2023-03-31T01:29:50.872Z,99781.50
2023-03-31T01:32:55.437Z,99784.19
2023-03-31T01:36:02.634Z,99779.38
2023-03-31T01:39:04.966Z,99784.75
2023-03-31T01:41:50.826Z,99766.22
2023-03-31T01:44:49.048Z,99770.31
2023-03-31T01:47:34.603Z,99768.91
2023-03-31T01:50:11.598Z,99776.97
2023-03-31T01:52:47.552Z,99775.41
2023-03-31T01:55:39.676Z,99757.44
2023-03-31T01:58:19.086Z,99756.84
2023-03-31T02:01:03.604Z,99750.03
2023-03-31T02:03:38.256Z,99752.19
2023-03-31T02:06:22.345Z,99735.03
2023-03-31T02:08:56.380Z,99737.13
2023-03-31T02:11:26.421Z,99737.13
2023-03-31T02:13:57.817Z,99724.84
2023-03-31T02:16:28.350Z,99738.88
2023-03-31T02:19:02.411Z,99712.53
2023-03-31T02:21:38.735Z,99712.22
2023-03-31T02:24:11.661Z,99729.38
2023-03-31T02:26:52.280Z,99714.38
2023-03-31T02:29:20.667Z,99704.44
2023-03-31T02:32:23.192Z,99700.06
2023-03-31T02:34:50.215Z,99694.94
2023-03-31T02:37:17.433Z,99684.59
2023-03-31T02:39:48.899Z,99697.78
2023-03-31T02:42:16.100Z,99690.56
2023-03-31T02:44:43.658Z,99682.59
2023-03-31T02:47:14.082Z,99689.44
2023-03-31T02:49:51.571Z,99671.31
2023-03-31T02:52:58.735Z,99687.31
2023-03-31T02:55:43.648Z,99681.09
2023-03-31T02:58:39.927Z,99656.72
2023-03-31T03:01:35.879Z,99640.16
2023-03-31T03:04:25.643Z,99670.91
2023-03-31T03:07:06.336Z,99655.19
2023-03-31T03:09:53.802Z,99644.13
2023-03-31T03:12:48.351Z,99638.75
2023-03-31T03:15:29.973Z,99647.50
2023-03-31T03:17:57.373Z,99633.78
2023-03-31T03:20:24.408Z,99621.88
2023-03-31T03:22:51.473Z,99618.06
2023-03-31T03:25:20.389Z,99620.88
2023-03-31T03:27:47.944Z,99628.97
2023-03-31T03:30:15.314Z,99616.91
2023-03-31T03:32:43.033Z,99598.69
2023-03-31T03:35:10.970Z,99582.66
2023-03-31T03:37:38.539Z,99585.78
2023-03-31T03:40:07.099Z,99558.03
2023-03-31T03:42:35.265Z,99591.97
2023-03-31T03:45:02.867Z,99564.25
2023-03-31T03:47:29.862Z,99581.31
2023-03-31T03:49:56.988Z,99570.00
2023-03-31T03:52:23.923Z,99566.59
2023-03-31T03:54:50.941Z,99555.84
2023-03-31T03:57:17.975Z,99542.81
2023-03-31T03:59:44.892Z,99544.22
2023-03-31T04:02:11.857Z,99547.16
2023-03-31T04:04:38.990Z,99517.06
2023-03-31T04:07:05.967Z,99524.25
2023-03-31T04:09:32.877Z,99521.84
2023-03-31T04:11:59.822Z,99518.84
2023-03-31T04:14:27.248Z,99505.56
2023-03-31T04:16:56.461Z,99497.78
2023-03-31T04:19:27.443Z,99476.41
2023-03-31T04:22:02.919Z,99493.16
2023-03-31T04:24:33.535Z,99479.56
2023-03-31T04:27:02.714Z,99501.19
2023-03-31T04:29:33.642Z,99476.72
2023-03-31T04:32:01.401Z,99476.84
2023-03-31T04:34:37.602Z,99450.72
2023-03-31T04:37:04.770Z,99453.09
2023-03-31T04:39:31.942Z,99467.75
2023-03-31T04:42:00.694Z,99445.88
2023-03-31T04:44:28.259Z,99459.81
2023-03-31T04:46:56.073Z,99429.72
2023-03-31T04:49:23.278Z,99449.22
2023-03-31T04:51:51.043Z,99447.91
2023-03-31T04:54:17.987Z,99434.13
2023-03-31T04:56:45.138Z,99438.25
2023-03-31T04:59:12.140Z,99439.75
2023-03-31T05:01:39.274Z,99438.63
2023-03-31T05:04:06.526Z,99440.72
2023-03-31T05:06:33.850Z,99409.81
2023-03-31T05:09:00.934Z,99431.38
2023-03-31T05:11:28.963Z,99413.88
2023-03-31T05:13:56.754Z,99394.56
2023-03-31T05:16:23.659Z,99391.53
2023-03-31T05:18:50.724Z,99388.72
2023-03-31T05:21:20.746Z,99399.88
2023-03-31T05:23:48.268Z,99400.28
2023-03-31T05:26:15.963Z,99393.06
2023-03-31T05:28:43.180Z,99408.88
2023-03-31T05:31:11.276Z,99402.66
2023-03-31T05:33:42.456Z,99390.66
2023-03-31T05:36:12.651Z,99362.56
2023-03-31T05:38:40.457Z,99392.63
2023-03-31T05:41:09.452Z,99389.91
2023-03-31T05:43:37.934Z,99383.69
2023-03-31T05:46:06.685Z,99382.56
2023-03-31T05:48:34.114Z,99361.06
2023-03-31T05:51:02.179Z,99352.28
2023-03-31T05:53:29.951Z,99371.19
2023-03-31T05:56:02.970Z,99351.66
2023-03-31T05:58:30.644Z,99347.16
2023-03-31T06:01:10.020Z,99365.81
2023-03-31T06:03:42.548Z,99366.34
2023-03-31T06:06:37.590Z,99338.34
2023-03-31T06:09:06.211Z,99353.59
2023-03-31T06:11:33.199Z,99334.72
2023-03-31T06:14:00.187Z,99350.38
2023-03-31T06:16:28.909Z,99344.41
2023-03-31T06:18:56.107Z,99341.16
2023-03-31T06:21:23.483Z,99317.19
2023-03-31T06:23:50.582Z,99333.63
2023-03-31T06:26:19.352Z,99341.81
2023-03-31T06:28:46.990Z,99328.66
2023-03-31T06:31:20.675Z,99333.72
2023-03-31T06:33:48.643Z,99319.72
2023-03-31T06:36:19.481Z,99307.44
2023-03-31T06:38:46.979Z,99315.75
2023-03-31T06:41:15.929Z,99307.97
2023-03-31T06:43:43.074Z,99294.75
2023-03-31T06:46:10.945Z,99272.28
2023-03-31T06:48:38.141Z,99267.59
2023-03-31T06:51:07.112Z,99296.06
2023-03-31T06:53:35.416Z,99275.50
2023-03-31T06:56:02.565Z,99288.75
2023-03-31T06:58:31.359Z,99282.50
2023-03-31T07:00:59.104Z,99278.38
2023-03-31T07:03:27.062Z,99247.47
2023-03-31T07:05:55.711Z,99256.63
2023-03-31T07:08:23.576Z,99259.16
2023-03-31T07:10:58.603Z,99252.63
2023-03-31T07:13:26.646Z,99246.53
2023-03-31T07:15:54.247Z,99245.47
2023-03-31T07:18:21.890Z,99251.53
2023-03-31T07:20:53.134Z,99234.84
2023-03-31T07:23:20.886Z,99232.50
2023-03-31T07:25:48.080Z,99240.94
2023-03-31T07:28:15.831Z,99210.34
2023-03-31T07:30:43.138Z,99221.03
2023-03-31T07:33:10.103Z,99214.56
2023-03-31T07:35:41.653Z,99225.31
2023-03-31T07:38:12.901Z,99202.66
2023-03-31T07:40:41.658Z,99186.22
2023-03-31T07:43:08.797Z,99195.88
2023-03-31T07:45:36.070Z,99203.31
2023-03-31T07:48:03.564Z,99194.88
2023-03-31T07:50:34.494Z,99183.09
2023-03-31T07:53:03.405Z,99179.09
2023-03-31T07:55:30.516Z,99175.78
2023-03-31T07:57:57.601Z,99164.16
2023-03-31T08:00:24.678Z,99160.84
2023-03-31T08:02:51.907Z,99166.81
2023-03-31T08:05:20.871Z,99136.78
2023-03-31T08:07:49.583Z,99167.19
2023-03-31T08:10:23.594Z,99167.84
2023-03-31T08:12:50.756Z,99152.69
2023-03-31T08:15:18.421Z,99164.47
2023-03-31T08:17:45.635Z,99147.31
2023-03-31T08:20:12.928Z,99138.09
2023-03-31T08:22:41.006Z,99141.50
2023-03-31T08:25:10.124Z,99130.03
2023-03-31T08:27:39.677Z,99139.03
2023-03-31T08:30:13.251Z,99142.28
2023-03-31T08:32:40.279Z,99115.94
2023-03-31T08:35:08.508Z,99123.50
2023-03-31T08:37:36.396Z,99134.00
2023-03-31T08:40:09.689Z,99120.00
2023-03-31T08:42:45.375Z,99112.03
2023-03-31T08:45:39.845Z,99098.97
2023-03-31T08:48:27.374Z,99087.84
2023-03-31T08:51:11.083Z,99108.63
2023-03-31T08:53:46.035Z,99103.41
2023-03-31T08:56:18.049Z,99110.00
2023-03-31T08:58:48.320Z,99081.31
2023-03-31T09:01:54.613Z,99104.75
2023-03-31T09:04:56.586Z,99104.75
2023-03-31T09:07:53.305Z,99105.94
2023-03-31T09:10:38.268Z,99082.84
2023-03-31T09:13:29.469Z,99100.53
2023-03-31T09:16:19.937Z,99092.91
2023-03-31T09:18:47.093Z,99076.75
2023-03-31T09:21:27.940Z,99101.72
2023-03-31T09:24:13.664Z,99074.88
2023-03-31T09:26:53.239Z,99085.47
2023-03-31T09:30:05.461Z,99102.81
2023-03-31T09:32:33.875Z,99098.41
2023-03-31T09:35:16.962Z,99091.59
2023-03-31T09:37:44.404Z,99080.78
2023-03-31T09:40:19.274Z,99094.25
2023-03-31T09:43:06.500Z,99086.97
2023-03-31T09:45:34.817Z,99074.66
2023-03-31T09:48:12.373Z,99069.56
2023-03-31T09:51:06.213Z,99083.91
2023-03-31T09:53:59.227Z,99088.75
2023-03-31T09:56:42.614Z,99085.97
2023-03-31T09:59:32.457Z,99078.50
2023-03-31T10:02:04.146Z,99077.34
2023-03-31T10:04:34.817Z,99058.63
2023-03-31T10:07:04.911Z,99058.84
2023-03-31T10:09:34.341Z,99054.97
2023-03-31T10:12:15.672Z,99068.19
2023-03-31T10:14:47.922Z,99064.78
2023-03-31T10:17:18.880Z,99055.34
2023-03-31T10:20:07.313Z,99069.66
2023-03-31T10:22:35.650Z,99058.03
2023-03-31T10:25:17.906Z,99055.47
2023-03-31T10:27:49.052Z,99073.03
2023-03-31T10:30:23.907Z,99060.53
2023-03-31T10:32:54.043Z,99058.69
2023-03-31T10:35:34.009Z,99071.31
2023-03-31T10:38:12.243Z,99075.19
2023-03-31T10:40:50.564Z,99065.41
2023-03-31T10:43:21.232Z,99076.84
2023-03-31T10:45:51.563Z,99042.88
2023-03-31T10:48:29.728Z,99067.69
2023-03-31T10:51:15.060Z,99076.78
2023-03-31T10:53:44.802Z,99069.63
2023-03-31T10:56:50.776Z,99063.53
2023-03-31T10:59:33.544Z,99060.78
2023-03-31T11:02:46.571Z,99053.38
2023-03-31T11:05:56.750Z,99057.41
2023-03-31T11:08:46.924Z,99061.09
2023-03-31T11:11:53.291Z,99055.06
2023-03-31T11:14:54.972Z,99056.25
2023-03-31T11:17:39.480Z,99047.03
2023-03-31T11:20:21.127Z,99040.28
2023-03-31T11:23:44.519Z,99036.28
2023-03-31T11:26:43.222Z,99021.78
2023-03-31T11:29:44.137Z,99039.13
2023-03-31T11:32:51.765Z,99026.16
2023-03-31T11:36:04.318Z,99021.03
2023-03-31T11:39:14.914Z,99030.53
2023-03-31T11:41:53.585Z,99030.16
2023-03-31T11:44:22.787Z,99029.03
2023-03-31T11:47:00.063Z,99015.69
2023-03-31T11:50:03.678Z,99025.31
2023-03-31T11:52:35.343Z,99015.88
2023-03-31T11:55:15.410Z,99023.28
2023-03-31T11:57:59.284Z,99016.72
2023-03-31T12:00:55.832Z,98998.84
2023-03-31T12:03:55.868Z,99006.44
2023-03-31T12:06:29.419Z,99000.38
2023-03-31T12:09:49.258Z,99016.38
2023-03-31T12:12:23.138Z,98994.16
2023-03-31T12:15:06.507Z,99002.44
2023-03-31T12:17:36.352Z,99002.75
2023-03-31T12:20:14.450Z,98982.19
2023-03-31T12:22:47.392Z,99004.31
2023-03-31T12:25:16.646Z,98990.66
2023-03-31T12:27:49.595Z,98988.81
2023-03-31T12:30:34.984Z,98988.81
2023-03-31T12:33:14.502Z,98982.75
2023-03-31T12:36:39.270Z,98983.91
2023-03-31T12:39:46.211Z,98978.38
2023-03-31T12:42:44.581Z,98985.78
2023-03-31T12:45:21.503Z,98979.53
2023-03-31T12:48:25.004Z,98975.16
2023-03-31T12:51:17.847Z,98976.19
2023-03-31T12:54:26.994Z,98964.00
2023-03-31T12:57:07.470Z,98954.72
2023-03-31T12:59:39.653Z,98955.88
2023-03-31T13:02:15.719Z,98957.75
2023-03-31T13:04:44.235Z,98924.03
2023-03-31T13:07:40.528Z,98942.06
2023-03-31T13:10:19.976Z,98948.97
2023-03-31T13:13:07.243Z,98948.97
2023-03-31T13:15:34.243Z,98936.81
2023-03-31T13:18:04.515Z,98943.50
2023-03-31T13:20:40.828Z,98932.41
2023-03-31T13:23:26.102Z,98937.75
2023-03-31T13:25:55.353Z,98910.88
2023-03-31T13:28:22.164Z,98924.31
2023-03-31T13:31:08.830Z,98911.28
2023-03-31T13:33:59.890Z,98900.66
2023-03-31T13:36:32.553Z,98916.88
2023-03-31T13:39:12.369Z,98916.75
2023-03-31T13:42:03.768Z,98921.72
2023-03-31T13:44:51.453Z,98921.88
2023-03-31T13:47:40.359Z,98892.06
2023-03-31T13:50:39.834Z,98919.72
2023-03-31T13:53:34.105Z,98925.91
2023-03-31T13:56:48.294Z,98913.38
2023-03-31T13:59:58.649Z,98902.69
2023-03-31T14:02:47.120Z,98923.94
2023-03-31T14:05:22.746Z,98924.31
2023-03-31T14:07:57.085Z,98925.31
2023-03-31T14:10:35.266Z,98917.81
2023-03-31T14:13:13.323Z,98925.00
2023-03-31T14:15:51.992Z,98927.13
2023-03-31T14:18:29.636Z,98910.03
2023-03-31T14:21:14.723Z,98924.88
2023-03-31T14:23:55.089Z,98906.06
2023-03-31T14:26:59.108Z,98918.03
2023-03-31T14:30:02.967Z,98910.94
2023-03-31T14:32:45.915Z,98904.00
2023-03-31T14:35:28.936Z,98918.50
2023-03-31T14:37:56.880Z,98902.34
2023-03-31T14:40:25.028Z,98898.16
2023-03-31T14:42:52.441Z,98908.94
2023-03-31T14:45:31.398Z,98914.56
2023-03-31T14:48:13.761Z,98899.91
2023-03-31T14:50:46.636Z,98912.69
2023-03-31T14:53:23.322Z,98905.94
2023-03-31T14:55:58.824Z,98901.69
2023-03-31T14:58:35.015Z,98910.28
2023-03-31T15:01:08.063Z,98908.94
2023-03-31T15:03:41.557Z,98887.34
2023-03-31T15:06:09.644Z,98861.91
2023-03-31T15:08:38.053Z,98881.94
2023-03-31T15:11:16.549Z,98897.97
2023-03-31T15:14:01.236Z,98895.28
2023-03-31T15:16:35.650Z,98899.47
2023-03-31T15:19:14.010Z,98874.28
2023-03-31T15:21:41.331Z,98893.25
2023-03-31T15:24:12.206Z,98872.47
2023-03-31T15:26:50.001Z,98885.94
2023-03-31T15:29:35.842Z,98864.69
2023-03-31T15:32:06.938Z,98878.44
2023-03-31T15:34:37.027Z,98874.88
2023-03-31T15:37:07.817Z,98878.25
2023-03-31T15:39:37.498Z,98864.59
2023-03-31T15:42:07.149Z,98866.91
2023-03-31T15:45:15.852Z,98841.28
2023-03-31T15:47:55.400Z,98870.72
2023-03-31T15:50:24.316Z,98867.91
2023-03-31T15:52:56.847Z,98841.16
2023-03-31T15:55:23.769Z,98868.94
2023-03-31T15:57:51.863Z,98850.94
2023-03-31T16:00:34.119Z,98861.34
2023-03-31T16:03:05.741Z,98856.19
2023-03-31T16:05:53.215Z,98840.81
2023-03-31T16:08:54.224Z,98849.59
2023-03-31T16:11:42.746Z,98845.75
2023-03-31T16:14:19.988Z,98849.22
2023-03-31T16:17:08.061Z,98830.19
2023-03-31T16:19:50.961Z,98844.53
2023-03-31T16:22:24.133Z,98844.28
2023-03-31T16:24:51.432Z,98815.09
2023-03-31T16:27:18.650Z,98846.81
2023-03-31T16:29:45.705Z,98854.13
2023-03-31T16:32:18.725Z,98853.13
2023-03-31T16:34:57.563Z,98845.56
2023-03-31T16:37:25.781Z,98859.34
2023-03-31T16:39:53.193Z,98843.88
2023-03-31T16:42:21.233Z,98858.34
2023-03-31T16:44:59.846Z,98848.81
2023-03-31T16:47:35.660Z,98834.56
2023-03-31T16:50:07.311Z,98833.53
2023-03-31T16:52:36.027Z,98840.53
2023-03-31T16:55:03.093Z,98852.34
2023-03-31T16:57:30.095Z,98847.44
2023-03-31T16:59:58.882Z,98847.72
2023-03-31T17:02:26.186Z,98823.25
2023-03-31T17:04:56.564Z,98841.09
2023-03-31T17:07:26.982Z,98828.59
2023-03-31T17:09:53.896Z,98842.44
2023-03-31T17:12:20.873Z,98837.63
2023-03-31T17:14:48.300Z,98834.59
2023-03-31T17:17:17.795Z,98826.50
2023-03-31T17:19:45.127Z,98833.16
2023-03-31T17:22:12.039Z,98837.59
2023-03-31T17:24:38.962Z,98810.66
2023-03-31T17:27:05.942Z,98845.13
2023-03-31T17:29:32.870Z,98836.00
2023-03-31T17:32:00.016Z,98830.72
2023-03-31T17:34:27.714Z,98850.41
2023-03-31T17:36:55.701Z,98854.56
2023-03-31T17:39:22.650Z,98840.00
2023-03-31T17:41:49.574Z,98849.28
2023-03-31T17:44:16.504Z,98858.53
2023-03-31T17:46:46.158Z,98859.06
2023-03-31T17:49:13.179Z,98847.97
2023-03-31T17:51:40.556Z,98836.78
2023-03-31T17:54:27.891Z,98725.00
2023-03-31T17:56:58.246Z,98794.78
2023-03-31T17:59:25.600Z,98850.28
2023-03-31T18:01:52.845Z,98852.28
2023-03-31T18:04:19.791Z,98821.63
2023-03-31T18:06:48.515Z,98845.22
2023-03-31T18:09:16.881Z,98857.38
2023-03-31T18:11:44.057Z,98822.84
2023-03-31T18:14:10.938Z,98858.97
2023-03-31T18:16:38.058Z,98862.34
2023-03-31T18:19:05.057Z,98858.50
2023-03-31T18:21:32.083Z,98832.44
2023-03-31T18:23:58.985Z,98857.72
2023-03-31T18:26:27.052Z,98848.31
2023-03-31T18:28:54.214Z,98843.81
2023-03-31T18:31:22.269Z,98871.84
2023-03-31T18:33:52.395Z,98865.28
2023-03-31T18:36:21.055Z,98850.72
2023-03-31T18:38:49.838Z,98866.56
2023-03-31T18:41:20.348Z,98883.09
2023-03-31T18:43:53.257Z,98870.50
2023-03-31T18:46:21.015Z,98854.00
2023-03-31T18:48:48.006Z,98880.09
2023-03-31T18:51:15.419Z,98869.84
2023-03-31T18:53:42.696Z,98885.03
2023-03-31T18:56:09.610Z,98871.06
2023-03-31T18:58:37.546Z,98827.91
2023-03-31T19:01:04.575Z,98867.84
2023-03-31T19:03:32.049Z,98862.97
2023-03-31T19:06:11.289Z,98859.09
2023-03-31T19:08:39.099Z,98859.78
2023-03-31T19:11:17.020Z,98876.28
2023-03-31T19:13:44.579Z,98892.94
2023-03-31T19:16:13.371Z,98864.47
2023-03-31T19:18:40.953Z,98877.44
2023-03-31T19:21:07.939Z,98875.25
2023-03-31T19:23:34.904Z,98890.75
2023-03-31T19:26:03.074Z,98887.72
2023-03-31T19:28:31.699Z,98887.38
2023-03-31T19:30:59.148Z,98881.84
2023-03-31T19:33:27.645Z,98899.00
2023-03-31T19:35:54.817Z,98901.19
2023-03-31T19:38:22.033Z,98875.59
2023-03-31T19:40:49.614Z,98884.16
2023-03-31T19:43:24.599Z,98896.44
2023-03-31T19:45:53.562Z,98903.72
2023-03-31T19:48:21.359Z,98884.84
2023-03-31T19:50:57.011Z,98896.13
2023-03-31T19:53:24.436Z,98896.44
2023-03-31T19:56:10.429Z,98895.63
2023-03-31T19:58:39.566Z,98894.81
2023-03-31T20:01:22.659Z,98869.00
2023-03-31T20:03:53.729Z,98886.34
2023-03-31T20:06:27.215Z,98895.44
2023-03-31T20:09:00.338Z,98877.22
2023-03-31T20:11:29.662Z,98892.44
2023-03-31T20:13:57.331Z,98891.06
2023-03-31T20:16:28.073Z,98877.22
2023-03-31T20:19:06.241Z,98888.22
2023-03-31T20:21:36.811Z,98869.69
2023-03-31T20:24:04.455Z,98856.56
2023-03-31T20:26:34.020Z,98886.00
2023-03-31T20:29:03.871Z,98872.00
2023-03-31T20:31:36.354Z,98879.59
2023-03-31T20:34:12.568Z,98882.06
2023-03-31T20:36:41.896Z,98872.94
2023-03-31T20:39:09.868Z,98887.22
2023-03-31T20:41:37.489Z,98882.88
2023-03-31T20:44:07.401Z,98884.91
2023-03-31T20:46:34.761Z,98869.97
2023-03-31T20:49:01.956Z,98867.16
2023-03-31T20:51:32.378Z,98877.72
2023-03-31T20:54:01.293Z,98875.75
2023-03-31T20:56:32.321Z,98860.75
2023-03-31T20:59:00.142Z,98892.94
2023-03-31T21:07:24.364Z,98889.06
2023-03-31T21:09:51.368Z,98873.38
2023-03-31T21:12:19.441Z,98888.72
2023-03-31T21:14:46.535Z,98887.38
2023-03-31T21:17:13.438Z,98872.66
2023-03-31T21:19:40.373Z,98873.34
2023-03-31T21:22:07.346Z,98870.13
2023-03-31T21:24:35.093Z,98888.69
2023-03-31T21:27:02.063Z,98882.59
2023-03-31T21:29:29.394Z,98886.78
2023-03-31T21:31:56.687Z,98872.50
2023-03-31T21:34:23.612Z,98874.50
2023-03-31T21:36:50.494Z,98877.00
2023-03-31T21:39:19.735Z,98882.09
2023-03-31T21:41:46.660Z,98864.91
2023-03-31T21:44:13.613Z,98867.09
2023-03-31T21:46:41.434Z,98882.75
2023-03-31T21:49:08.413Z,98859.50
2023-03-31T21:51:35.641Z,98879.56
2023-03-31T21:54:02.565Z,98851.41
2023-03-31T21:56:32.112Z,98884.06
2023-03-31T21:59:00.235Z,98876.66
2023-03-31T22:01:27.712Z,98871.63
2023-03-31T22:03:54.799Z,98880.78
2023-03-31T22:06:22.385Z,98878.97
2023-03-31T22:08:49.380Z,98886.53
2023-03-31T22:11:16.717Z,98870.03
2023-03-31T22:13:43.785Z,98873.03
2023-03-31T22:16:21.111Z,98893.88
2023-03-31T22:18:50.232Z,98883.94
2023-03-31T22:21:28.843Z,98884.91
2023-03-31T22:23:59.437Z,98863.53
2023-03-31T22:26:29.181Z,98890.66
2023-03-31T22:28:56.832Z,98890.16
2023-03-31T22:31:26.093Z,98886.66
2023-03-31T22:33:53.219Z,98877.06
2023-03-31T22:36:20.714Z,98890.00
2023-03-31T22:38:47.702Z,98860.78
2023-03-31T22:41:16.682Z,98890.75
2023-03-31T22:43:45.886Z,98885.84
2023-03-31T22:46:13.985Z,98895.63
2023-03-31T22:48:40.921Z,98858.09
2023-03-31T22:51:08.898Z,98878.09
2023-03-31T22:53:36.011Z,98890.25
2023-03-31T22:56:10.066Z,98906.75
2023-03-31T22:58:37.568Z,98888.38
2023-03-31T23:01:06.990Z,98872.22
2023-03-31T23:03:34.838Z,98888.91
2023-03-31T23:06:06.223Z,98891.25
2023-03-31T23:08:35.839Z,98897.50
2023-03-31T23:11:05.986Z,98896.81
2023-03-31T23:13:32.870Z,98890.94
2023-03-31T23:16:12.454Z,98901.03
2023-03-31T23:18:44.470Z,98877.78
2023-03-31T23:21:12.248Z,98900.00
2023-03-31T23:23:40.329Z,98879.63
2023-03-31T23:26:07.366Z,98877.09
2023-03-31T23:28:37.118Z,98898.31
2023-03-31T23:31:05.602Z,98906.41
2023-03-31T23:33:32.771Z,98897.81
2023-03-31T23:36:05.768Z,98899.66
2023-03-31T23:38:33.698Z,98895.81
2023-03-31T23:41:01.718Z,98894.78
2023-03-31T23:43:28.810Z,98894.44
2023-03-31T23:45:56.436Z,98887.88
2023-03-31T23:48:23.662Z,98882.09
2023-03-31T23:50:50.984Z,98881.44
2023-03-31T23:53:17.986Z,98854.47
2023-03-31T23:55:57.870Z,98888.38
2023-03-31T23:58:26.535Z,98893.94
